Neil Armstrong — WARL — position and weather

sailwx.info

Track history (hours):
 
Tides and Currents Weather Stations Pressure Air Temp Water Temp Dewpoint Dewpoint Depression Visibility Wind Speed Wind Dir Waves Ship Positions

Oceanographic research ship Neil Armstrong (United States)

Owner: Woods Hole Oceanographic Institution, Woods Hole, MA. More information available from US FCC via Universal Licensing System and Coast Guard Vessel Documentation Center.

Last reported at 2020-Jul-03 17:00 UTC. Time now 2020-Jul-03 20:22 UTC.
Position N 59°54' W 045°30'.

Length 72 m; draft 4.4 m.

Type: Ship. MMSI: 338767000.

Wind from 290 at 15 knots

Barometer 1005.1 mb
Air temperature 3.6 ° C
Dewpoint 2.1 ° C
Water temperature 2.8 ° C

Date/timePositionNaut miles runAvg speedWind from/ knotsBaromVisibWave heightAir tempDewpointWater temp
2020-Jul-03 17:00N 59°54' W 045°30'1110.9 290 / 151005.1 3.6 2.1 2.8
2020-Jul-03 16:00N 59°48' W 045°48'1110.9 310 / 81005.4 4.4 3.1 3.3
2020-Jul-03 15:00N 59°42' W 046°06'1110.9 290 / 131005.5 4.6 3.3 3.4
2020-Jul-03 14:00N 59°36' W 046°24'9 8.5 290 / 161005.6 5.3 4.0 5.3
2020-Jul-03 13:00N 59°30' W 046°36'0 0.0 310 / 161005.7 5.5 4.2 5.8
2020-Jul-03 12:00N 59°30' W 046°36'0 0.0 300 / 151005.3 5.6 4.2 5.7
2020-Jul-03 11:00N 59°30' W 046°36'3 3.0 300 / 151005.2 5.6 4.3 5.6
2020-Jul-03 10:00N 59°30' W 046°30'0 0.0 290 / 141004.6 5.8 4.3 5.4
2020-Jul-03 09:00N 59°30' W 046°30'0 0.0 310 / 131004.7 5.7 4.3 5.6
2020-Jul-03 08:00N 59°30' W 046°30'11 3.6 340 / 91004.7 5.9 4.6 5.2
2020-Jul-03 05:00N 59°36' W 046°12'0 0.0 300 / 91003.9 5.2 3.6 3.0
2020-Jul-03 04:00N 59°36' W 046°12'0 0.0 300 / 121003.9 4.9 3.8 2.7
2020-Jul-03 03:00N 59°36' W 046°12'0 0.0 320 / 101003.9 5.4 4.2 3.4
2020-Jul-03 02:00N 59°36' W 046°12'3 3.0 320 / 121004.0 5.4 4.0 3.8
2020-Jul-03 01:00N 59°36' W 046°18'6 6.0 300 / 141003.9 5.5 4.1 4.5
2020-Jul-03 00:00N 59°30' W 046°18'1110.9 280 / 161003.8 5.6 4.2 5.5
2020-Jul-02 23:00N 59°24' W 046°36'1111.0 300 / 171004.1 5.3 3.7 6.8
2020-Jul-02 22:00N 59°18' W 046°54'0 0.0 310 / 111004.2 4.9 3.5 6.8
2020-Jul-02 21:00N 59°18' W 046°54'3 3.1 310 / 151004.3 5.2 3.6 6.9
2020-Jul-02 20:00N 59°18' W 046°48'0 0.0 310 / 171004.4 5.2 3.6 6.6
2020-Jul-02 19:00N 59°18' W 046°48'3 3.1 310 / 181004.3 5.5 3.9 6.8
2020-Jul-02 18:00N 59°18' W 046°42'3 1.0 310 / 181004.4 6.3 4.2 7.1
2020-Jul-02 15:00N 59°18' W 046°48'7 6.7 300 / 141005.5 6.6 4.1 6.9
2020-Jul-02 14:00N 59°24' W 046°54'6 6.0 300 / 91006.2 6.4 4.1 6.7
2020-Jul-02 13:00N 59°18' W 046°54'0 0.0 340 / 101006.7 6.1 4.0 7.1
2020-Jul-02 12:00N 59°18' W 046°54'0 0.0 350 / 101006.7 5.9 4.1 6.9
2020-Jul-02 11:00N 59°18' W 046°54'0 0.0 350 / 91006.9 6.0 4.3 6.9
2020-Jul-02 10:00N 59°18' W 046°54'0 0.0 360 / 111006.7 5.9 4.1 6.9
2020-Jul-02 09:00N 59°18' W 046°54'0 0.0 010 / 101006.7 5.6 3.8 6.8
2020-Jul-02 08:00N 59°18' W 046°54'9 8.6 030 / 91006.6 5.4 3.8 6.8
2020-Jul-02 07:00N 59°24' W 046°42'9 8.6 020 / 121007.0 5.4 3.4 6.5
2020-Jul-02 06:00N 59°30' W 046°30'3 1.0 020 / 81007.3 5.3 3.3 7.3
2020-Jul-02 03:00N 59°30' W 046°24'0 0.0 070 / 81008.4 4.8 3.0 6.8
2020-Jul-02 02:00N 59°30' W 046°24'7 6.7 080 / 61008.5 4.4 3.1 6.6
2020-Jul-02 01:00N 59°24' W 046°30'0 0.0 060 / 91008.6 4.8 3.1 7.2
2020-Jul-02 00:00N 59°24' W 046°30'6 6.1 060 / 91008.8 4.9 3.2 7.2
2020-Jul-01 23:00N 59°24' W 046°42'9 8.6 030 / 61008.4 4.8 3.1 6.5
2020-Jul-01 22:00N 59°18' W 046°54'1111.0 050 / 31008.3 4.9 3.1 6.2
2020-Jul-01 21:00N 59°12' W 047°12'9 4.3 080 / 41008.3 4.7 3.2 6.5
2020-Jul-01 19:00N 59°06' W 047°24'0 0.0 090 / 51008.6 4.9 2.9 6.3
2020-Jul-01 18:00N 59°06' W 047°24'3 3.1 080 / 81008.9 4.8 2.8 6.5
2020-Jul-01 17:00N 59°06' W 047°18'3 3.1 060 / 81009.0 4.8 3.2 6.6
2020-Jul-01 16:00N 59°06' W 047°24'0 0.0 060 / 61009.3 4.9 3.3 6.4
2020-Jul-01 15:00N 59°06' W 047°24'0 0.0 070 / 61009.7 5.1 3.1 6.2
2020-Jul-01 14:00N 59°06' W 047°24'3 3.1 100 / 51009.7 5.2 3.0 6.2
2020-Jul-01 13:00N 59°06' W 047°30'0 0.0 090 / 61009.9 5.3 2.9 6.1
2020-Jul-01 12:00N 59°06' W 047°30'6 6.2 090 / 91009.7 5.2 3.2 6.0
2020-Jul-01 11:00N 59°06' W 047°18'0 0.0 100 / 131009.7 5.0 3.4 6.3
2020-Jul-01 10:00N 59°06' W 047°18'0 0.0 060 / 101010.0 5.0 3.5 6.4
2020-Jul-01 09:00N 59°06' W 047°18'17 8.6 090 / 101010.0 4.9 3.3 6.4
2020-Jul-01 07:00N 59°18' W 046°54'9 4.3 080 / 91010.2 4.5 3.3 5.9
2020-Jul-01 05:00N 59°24' W 046°42'0 0.0 090 / 121010.5 4.5 3.0 6.7
2020-Jul-01 04:00N 59°24' W 046°42'9 8.6 100 / 131010.5 4.9 3.5 6.8
2020-Jul-01 03:00N 59°18' W 046°54'0 0.0 100 / 91010.9 5.2 3.7 6.9
2020-Jul-01 02:00N 59°18' W 046°54'0 0.0 060 / 71011.6 5.1 3.5 6.9
2020-Jul-01 01:00N 59°18' W 046°54'9 8.6 070 / 71012.0 5.1 3.5 6.9
2020-Jul-01 00:00N 59°12' W 047°06'0 0.0 090 / 91012.5 5.1 3.6 6.1
2020-Jun-30 23:00N 59°12' W 047°06'0 0.0 090 / 101012.4 5.2 3.4 6.3
2020-Jun-30 22:00N 59°12' W 047°06'11 5.5 070 / 81012.6 5.2 3.1 6.3
2020-Jun-30 20:00N 59°06' W 047°24'0 0.0 100 / 81013.4 6.1 3.9 6.3
2020-Jun-30 19:00N 59°06' W 047°24'0 0.0 110 / 41014.0 6.4 3.9 6.1
2020-Jun-30 17:00N 59°06' W 047°24'3 3.1 110 / 31015.0 6.2 3.5 6.3
2020-Jun-30 16:00N 59°06' W 047°18'0 0.0 150 / 11015.9 6.1 3.4 6.3
2020-Jun-30 15:00N 59°06' W 047°18'0 0.0 260 / 11016.8 5.5 3.1 6.3
2020-Jun-30 14:00N 59°06' W 047°18'0 0.0 190 / 31017.6 5.1 3.2 6.1
2020-Jun-30 13:00N 59°06' W 047°18'0 0.0 340 / 31018.3 4.7 2.8 6.1
2020-Jun-30 12:00N 59°06' W 047°18'0 0.0 330 / 61018.8 4.5 3.3 6.1
2020-Jun-30 11:00N 59°06' W 047°18'1212.4 300 / 61019.4 4.5 3.4 6.0
2020-Jun-30 10:00N 58°54' W 047°24'7 6.8 320 / 51020.2 5.0 3.7 6.0
2020-Jun-30 09:00N 58°48' W 047°30'1212.0 280 / 71020.7 5.4 4.0 5.9
2020-Jun-30 08:00N 58°36' W 047°30'1212.4 260 / 71021.1 5.3 4.0 6.4
2020-Jun-30 07:00N 58°24' W 047°36'1212.0 230 / 61021.9 5.4 4.3 6.4
2020-Jun-30 06:00N 58°12' W 047°36'7 6.8 220 / 31022.3 5.4 4.4 6.4
2020-Jun-30 05:00N 58°06' W 047°42'1212.4 230 / 81023.4 5.9 4.7 6.1
2020-Jun-30 04:00N 57°54' W 047°48'2412.1 220 / 91024.1 5.9 4.6 6.3
2020-Jun-30 02:00N 57°30' W 047°54'7 6.8 210 / 51025.9 6.0 4.5 6.5
2020-Jun-30 01:00N 57°24' W 048°00'1212.0 150 / 31026.1 6.1 4.6 7.1
2020-Jun-30 00:00N 57°12' W 048°00'1212.4 240 / 41026.5 6.8 4.4 7.5
2020-Jun-29 23:00N 57°00' W 048°06'1212.4 220 / 31026.9 6.7 4.2 8.0
2020-Jun-29 22:00N 56°48' W 048°12'6 6.0 250 / 31027.3 6.8 3.9 7.5
2020-Jun-29 21:00N 56°42' W 048°12'1212.4 260 / 21027.8 7.1 3.7 7.9
2020-Jun-29 20:00N 56°30' W 048°18'1212.0 260 / 21028.1 7.3 4.0 7.7
2020-Jun-29 19:00N 56°18' W 048°18'1212.5 130 / 31028.1 7.4 4.6 7.6
2020-Jun-29 18:00N 56°06' W 048°24'1212.5 030 / 11027.8 7.4 4.2 7.8
2020-Jun-29 17:00N 55°54' W 048°30'6 6.0 110 / 31027.9 7.3 4.2 7.7
2020-Jun-29 16:00N 55°48' W 048°30'1212.5 060 / 11028.1 7.1 4.3 7.4
2020-Jun-29 15:00N 55°36' W 048°36'1212.5 080 / 21028.4 7.0 4.6 7.5
2020-Jun-29 14:00N 55°24' W 048°42'6 6.0 030 / 31028.4 7.0 5.0 7.7
2020-Jun-29 13:00N 55°18' W 048°42'1212.0 050 / 51028.0 6.9 5.5 7.7
2020-Jun-29 12:00N 55°06' W 048°42'1212.5 020 / 41027.6 7.1 5.6 7.9
2020-Jun-29 11:00N 54°54' W 048°48'1212.5 010 / 51027.3 7.2 5.3 7.8
2020-Jun-29 10:00N 54°42' W 048°54'6 6.0 010 / 51026.7 7.3 5.4 7.9
2020-Jun-29 09:00N 54°36' W 048°54'1212.5 030 / 61026.3 7.4 5.8 7.8
2020-Jun-29 08:00N 54°24' W 049°00'1212.0 300 / 61025.6 7.0 5.3 7.9
2020-Jun-29 07:00N 54°12' W 049°00'7 7.0 330 / 71025.2 6.8 5.1 7.7
2020-Jun-29 06:00N 54°06' W 049°06'1212.0 250 / 41024.8 6.6 4.8 7.8
2020-Jun-29 05:00N 53°54' W 049°06'1312.5 220 / 11024.5 7.1 3.4 7.7
2020-Jun-29 04:00N 53°42' W 049°12'1212.0 030 / 41024.0 6.9 5.1 7.7
2020-Jun-29 03:00N 53°30' W 049°12'7 7.0 070 / 61023.7 7.3 5.2 8.3
2020-Jun-29 02:00N 53°24' W 049°18'1312.5 040 / 61023.2 7.0 5.7 8.3
2020-Jun-29 01:00N 53°12' W 049°24'1212.0 050 / 21022.9 6.9 5.3 8.6
2020-Jun-29 00:00N 53°00' W 049°24'7 7.0 040 / 31022.5 7.7 5.4 8.3
2020-Jun-28 23:00N 52°54' W 049°30'1212.0 040 / 51021.8 8.0 4.9 8.2
2020-Jun-28 22:00N 52°42' W 049°30'1312.5 070 / 91021.3 7.7 6.2 8.3
2020-Jun-28 21:00N 52°30' W 049°36'6 6.0 040 / 51020.6 7.8 6.3 7.9
2020-Jun-28 20:00N 52°24' W 049°36'6 6.0 010 / 61020.6 7.6 6.3 7.8
2020-Jun-28 19:00N 52°18' W 049°36'0 0.0 010 / 61020.3 7.5 6.4 7.4
2020-Jun-28 18:00N 52°18' W 049°36'0 0.0 350 / 61019.8 7.5 6.4 7.1
2020-Jun-28 17:00N 52°18' W 049°36'7 7.0 340 / 41019.4 7.4 6.3 6.9
2020-Jun-28 16:00N 52°12' W 049°42'1212.0 020 / 61018.9 7.0 6.0 7.3
2020-Jun-28 15:00N 52°00' W 049°42'1312.6 350 / 51018.5 6.8 6.0 7.1
2020-Jun-28 14:00N 51°48' W 049°48'6 6.0 010 / 101017.5 6.7 5.9 7.1
2020-Jun-28 13:00N 51°42' W 049°48'3110.3 1017.3 6.7 6.0 7.0
2020-Jun-28 10:00N 51°12' W 050°00'1212.0 010 / 81015.2 6.1 5.4 6.6
2020-Jun-28 09:00N 51°00' W 050°00'1312.6 010 / 111014.5 6.3 5.6 8.0
2020-Jun-28 08:00N 50°48' W 050°06'6 6.0 020 / 131014.3 6.1 5.4 6.9
2020-Jun-28 07:00N 50°42' W 050°06'1312.6 010 / 101014.1 6.0 5.3 6.7
2020-Jun-28 06:00N 50°30' W 050°12'1212.0 010 / 121013.2 6.3 5.6 7.2
2020-Jun-28 05:00N 50°18' W 050°12'7 7.1 010 / 101013.0 6.7 6.0 7.4
2020-Jun-28 04:00N 50°12' W 050°18'1212.0 350 / 101012.7 6.6 5.9 7.1
2020-Jun-28 03:00N 50°00' W 050°18'7 7.1 340 / 91013.2 6.2 5.5 6.5
2020-Jun-28 02:00N 49°54' W 050°24'1212.0 320 / 101012.8 5.9 5.1 6.7
2020-Jun-28 01:00N 49°42' W 050°24'1312.6 340 / 111012.7 6.0 5.3 7.3
2020-Jun-28 00:00N 49°30' W 050°30'6 6.0 330 / 81012.5 6.1 5.4 7.4
2020-Jun-27 23:00N 49°24' W 050°30'1312.6 320 / 91011.6 6.5 5.7 7.6
2020-Jun-27 22:00N 49°12' W 050°36'1212.0 340 / 41011.4 7.3 6.2 7.9
2020-Jun-27 21:00N 49°00' W 050°36'137 9.8 020 / 71010.9 7.9 6.5 8.6
2020-Jun-27 07:00N 46°48' W 051°30'1010.2 220 / 151011.5 10.710.0 9.5
2020-Jun-27 06:00N 46°42' W 051°42'8 8.2 210 / 101011.3 10.710.0 9.7
2020-Jun-27 05:00N 46°42' W 051°54'8 8.2 240 / 101011.6 10.910.2 9.7
2020-Jun-27 04:00N 46°42' W 052°06'7 7.3 220 / 131011.9 11.310.6 9.0
2020-Jun-27 03:00N 46°36' W 052°12'8 8.2 210 / 101012.5 11.310.6 9.6
2020-Jun-27 02:00N 46°36' W 052°24'1010.2 210 / 111013.2 11.410.7 9.6
2020-Jun-27 01:00N 46°30' W 052°36'8 8.3 180 / 141013.4 12.011.3 9.3
2020-Jun-27 00:00N 46°30' W 052°48'1010.2 180 / 141013.7 12.411.7 9.5
2020-Jun-26 23:00N 46°24' W 053°00'8 8.3 180 / 151013.9 11.911.110.1
2020-Jun-26 22:00N 46°24' W 053°12'1413.8 200 / 61013.8 13.012.110.7
2020-Jun-26 21:00N 46°18' W 053°30'8 8.3 220 / 111014.3 13.712.911.6
2020-Jun-26 20:00N 46°18' W 053°42'1212.4 200 / 161015.0 11.911.011.7
2020-Jun-26 19:00N 46°18' W 054°00'1010.2 230 / 41014.4 11.810.910.8
2020-Jun-26 18:00N 46°12' W 054°12'1212.5 210 / 101015.4 11.710.711.3
2020-Jun-26 17:00N 46°12' W 054°30'1413.8 250 / 121015.4 11.911.011.2
2020-Jun-26 16:00N 46°06' W 054°48'8 8.3 250 / 141015.6 11.710.811.3
2020-Jun-26 15:00N 46°06' W 055°00'1212.5 230 / 171015.8 11.410.611.1
2020-Jun-26 14:00N 46°06' W 055°18'1010.3 230 / 161015.7 11.610.811.0
2020-Jun-26 13:00N 46°00' W 055°30'8 8.3 220 / 161016.0 11.610.811.1
2020-Jun-26 12:00N 46°00' W 055°42'8 8.3 240 / 161015.7 11.710.911.3
2020-Jun-26 11:00N 46°00' W 055°54'1413.9 230 / 161015.5 12.011.311.2
2020-Jun-26 10:00N 45°54' W 056°12'1312.5 240 / 151015.5 12.311.611.3
2020-Jun-26 09:00N 45°54' W 056°30'1010.3 230 / 181015.1 12.511.811.4
2020-Jun-26 08:00N 45°48' W 056°42'3010.0 220 / 161014.9 12.712.011.6
2020-Jun-26 05:00N 45°42' W 057°24'1413.9 220 / 201014.3 13.312.611.6
2020-Jun-26 04:00N 45°36' W 057°42'2210.9 210 / 181014.5 13.813.111.9
2020-Jun-26 02:00N 45°30' W 058°12'1312.6 180 / 181014.5 14.613.911.6
2020-Jun-26 01:00N 45°30' W 058°30'1010.3 180 / 191014.8 14.814.111.7
2020-Jun-26 00:00N 45°24' W 058°42'8 8.4 180 / 171014.6 14.313.612.2
2020-Jun-25 23:00N 45°24' W 058°54'1010.3 190 / 161014.8 14.714.012.0
2020-Jun-25 22:00N 45°18' W 059°06'8 8.4 190 / 181014.7 14.814.112.4
2020-Jun-25 21:00N 45°18' W 059°18'1414.0 190 / 181014.9 15.114.411.6
2020-Jun-25 20:00N 45°12' W 059°36'8 8.5 190 / 191015.2 15.114.312.2
2020-Jun-25 19:00N 45°12' W 059°48'1414.0 190 / 181015.1 15.414.712.5
2020-Jun-25 18:00N 45°06' W 060°06'1010.4 190 / 161015.1 15.414.612.7
2020-Jun-25 17:00N 45°00' W 060°18'8 8.5 180 / 181014.7 15.314.612.4
2020-Jun-25 16:00N 45°00' W 060°30'1414.1 190 / 141015.0 14.914.112.4
2020-Jun-25 15:00N 44°54' W 060°48'9 8.5 190 / 151014.8 15.014.313.1
2020-Jun-25 14:00N 44°54' W 061°00'2211.0 220 / 141014.1 15.414.612.9
2020-Jun-25 12:00N 44°48' W 061°30'1010.4 200 / 141014.3 15.214.511.9
2020-Jun-25 11:00N 44°42' W 061°42'1010.4 230 / 131013.4 15.514.613.0
2020-Jun-25 10:00N 44°36' W 061°54'9 8.5 200 / 151013.5 15.014.313.5
2020-Jun-25 09:00N 44°36' W 062°06'1010.4 190 / 161013.3 15.214.512.8
2020-Jun-25 08:00N 44°30' W 062°18'1414.2 200 / 151012.7 15.314.614.3
2020-Jun-25 07:00N 44°24' W 062°36'1010.5 180 / 141012.2 15.815.113.5
2020-Jun-25 06:00N 44°18' W 062°48'1010.5 180 / 121012.0 15.614.912.9
2020-Jun-25 05:00N 44°12' W 063°00'1010.5 180 / 171011.9 15.715.012.9
2020-Jun-25 04:00N 44°06' W 063°12'1414.3 180 / 151012.1 15.715.013.2
2020-Jun-25 03:00N 44°00' W 063°30'1110.5 180 / 161012.1 15.514.813.3
2020-Jun-25 02:00N 43°54' W 063°42'9 8.6 180 / 171012.1 15.514.814.1
2020-Jun-25 01:00N 43°54' W 063°54'1110.5 180 / 161012.0 15.815.114.4
2020-Jun-25 00:00N 43°48' W 064°06'1110.5 180 / 171011.4 16.215.513.9
2020-Jun-24 23:00N 43°42' W 064°18'1110.6 170 / 161011.2 15.915.214.0
2020-Jun-24 22:00N 43°36' W 064°30'1414.4 170 / 151011.1 15.815.113.5
2020-Jun-24 21:00N 43°30' W 064°48'1110.6 160 / 151010.9 16.215.513.4
2020-Jun-24 20:00N 43°24' W 065°00'1110.6 160 / 141011.1 15.915.212.8
2020-Jun-24 19:00N 43°18' W 065°12'1110.6 160 / 141011.0 15.614.913.3
2020-Jun-24 18:00N 43°12' W 065°24'1110.6 150 / 181010.6 14.113.4 9.0
2020-Jun-24 17:00N 43°06' W 065°36'1110.6 150 / 171010.2 14.213.410.4
2020-Jun-24 16:00N 43°00' W 065°48'9 8.8 160 / 151010.2 15.214.510.0
2020-Jun-24 15:00N 43°00' W 066°00'1110.6 150 / 181010.2 12.611.9 9.3
2020-Jun-24 14:00N 42°54' W 066°12'1110.6 150 / 151010.4 11.811.0 9.8
2020-Jun-24 13:00N 42°48' W 066°24'1110.7 150 / 161010.4 13.512.713.0
2020-Jun-24 12:00N 42°42' W 066°36'1110.7 170 / 131010.4 14.814.113.8
2020-Jun-24 11:00N 42°36' W 066°48'1514.9 160 / 131010.1 14.213.514.1
2020-Jun-24 10:00N 42°24' W 067°00'1110.7 170 / 121010.4 14.213.514.0
2020-Jun-24 09:00N 42°18' W 067°12'1110.7 170 / 131009.8 14.213.514.0
2020-Jun-24 08:00N 42°12' W 067°24'1514.6 170 / 141009.5 13.913.215.8
2020-Jun-24 07:00N 42°06' W 067°42'9 8.9 190 / 131009.7 14.313.616.2
2020-Jun-24 06:00N 42°06' W 067°54'1110.7 190 / 151009.8 14.613.916.1
2020-Jun-24 05:00N 42°00' W 068°06'1313.4 200 / 151010.0 14.213.516.0
2020-Jun-24 04:00N 42°00' W 068°24'1110.8 180 / 151009.9 14.113.413.9
2020-Jun-24 03:00N 41°54' W 068°36'1110.8 180 / 131010.2 15.414.715.8
2020-Jun-24 02:00N 41°48' W 068°48'1110.8 190 / 131010.2 15.915.217.4
2020-Jun-24 01:00N 41°42' W 069°00'9 9.0 190 / 121010.2 16.215.517.1
2020-Jun-24 00:00N 41°42' W 069°12'1110.8 190 / 131009.8 16.816.118.6
2020-Jun-23 23:00N 41°36' W 069°24'1110.8 190 / 111009.9 16.015.318.6
2020-Jun-23 22:00N 41°30' W 069°36'7 7.5 200 / 101009.8 15.414.617.4
2020-Jun-23 21:00N 41°24' W 069°42'1413.5 200 / 131009.8 15.714.911.8
2020-Jun-23 20:00N 41°24' W 070°00'9 9.0 220 / 131010.1 18.918.215.6
2020-Jun-23 19:00N 41°24' W 070°12'1514.8 220 / 151010.7 18.217.420.0
2020-Jun-23 18:00N 41°30' W 070°30'9 9.0 190 / 171010.3 20.118.319.4
2020-Jun-23 17:00N 41°30' W 070°42'   230 / 71011.1 22.219.219.8
Track history (hours):
 
Tides and Currents Weather Stations Pressure Air Temp Water Temp Dewpoint Dewpoint Depression Visibility Wind Speed Wind Dir Waves Ship Positions

Oceanographic research ship Neil Armstrong (United States)

Owner: Woods Hole Oceanographic Institution, Woods Hole, MA. More information available from US FCC via Universal Licensing System and Coast Guard Vessel Documentation Center.

Last reported at 2020-Jul-03 17:00 UTC. Time now 2020-Jul-03 20:22 UTC.
Position N 59°54' W 045°30'.

Length 72 m; draft 4.4 m.

Type: Ship. MMSI: 338767000.

Wind from 290 at 15 knots

Barometer 1005.1 mb
Air temperature 3.6 ° C
Dewpoint 2.1 ° C
Water temperature 2.8 ° C

Date/timePositionNaut miles runAvg speedWind from/ knotsBaromVisibWave heightAir tempDewpointWater temp
2020-Jul-03 17:00N 59°54' W 045°30'1110.9 290 / 151005.1 3.6 2.1 2.8
2020-Jul-03 16:00N 59°48' W 045°48'1110.9 310 / 81005.4 4.4 3.1 3.3
2020-Jul-03 15:00N 59°42' W 046°06'1110.9 290 / 131005.5 4.6 3.3 3.4
2020-Jul-03 14:00N 59°36' W 046°24'9 8.5 290 / 161005.6 5.3 4.0 5.3
2020-Jul-03 13:00N 59°30' W 046°36'0 0.0 310 / 161005.7 5.5 4.2 5.8
2020-Jul-03 12:00N 59°30' W 046°36'0 0.0 300 / 151005.3 5.6 4.2 5.7
2020-Jul-03 11:00N 59°30' W 046°36'3 3.0 300 / 151005.2 5.6 4.3 5.6
2020-Jul-03 10:00N 59°30' W 046°30'0 0.0 290 / 141004.6 5.8 4.3 5.4
2020-Jul-03 09:00N 59°30' W 046°30'0 0.0 310 / 131004.7 5.7 4.3 5.6
2020-Jul-03 08:00N 59°30' W 046°30'11 3.6 340 / 91004.7 5.9 4.6 5.2
2020-Jul-03 05:00N 59°36' W 046°12'0 0.0 300 / 91003.9 5.2 3.6 3.0
2020-Jul-03 04:00N 59°36' W 046°12'0 0.0 300 / 121003.9 4.9 3.8 2.7
2020-Jul-03 03:00N 59°36' W 046°12'0 0.0 320 / 101003.9 5.4 4.2 3.4
2020-Jul-03 02:00N 59°36' W 046°12'3 3.0 320 / 121004.0 5.4 4.0 3.8
2020-Jul-03 01:00N 59°36' W 046°18'6 6.0 300 / 141003.9 5.5 4.1 4.5
2020-Jul-03 00:00N 59°30' W 046°18'1110.9 280 / 161003.8 5.6 4.2 5.5
2020-Jul-02 23:00N 59°24' W 046°36'1111.0 300 / 171004.1 5.3 3.7 6.8
2020-Jul-02 22:00N 59°18' W 046°54'0 0.0 310 / 111004.2 4.9 3.5 6.8
2020-Jul-02 21:00N 59°18' W 046°54'3 3.1 310 / 151004.3 5.2 3.6 6.9
2020-Jul-02 20:00N 59°18' W 046°48'0 0.0 310 / 171004.4 5.2 3.6 6.6
2020-Jul-02 19:00N 59°18' W 046°48'3 3.1 310 / 181004.3 5.5 3.9 6.8
2020-Jul-02 18:00N 59°18' W 046°42'3 1.0 310 / 181004.4 6.3 4.2 7.1
2020-Jul-02 15:00N 59°18' W 046°48'7 6.7 300 / 141005.5 6.6 4.1 6.9
2020-Jul-02 14:00N 59°24' W 046°54'6 6.0 300 / 91006.2 6.4 4.1 6.7
2020-Jul-02 13:00N 59°18' W 046°54'0 0.0 340 / 101006.7 6.1 4.0 7.1
2020-Jul-02 12:00N 59°18' W 046°54'0 0.0 350 / 101006.7 5.9 4.1 6.9
2020-Jul-02 11:00N 59°18' W 046°54'0 0.0 350 / 91006.9 6.0 4.3 6.9
2020-Jul-02 10:00N 59°18' W 046°54'0 0.0 360 / 111006.7 5.9 4.1 6.9
2020-Jul-02 09:00N 59°18' W 046°54'0 0.0 010 / 101006.7 5.6 3.8 6.8
2020-Jul-02 08:00N 59°18' W 046°54'9 8.6 030 / 91006.6 5.4 3.8 6.8
2020-Jul-02 07:00N 59°24' W 046°42'9 8.6 020 / 121007.0 5.4 3.4 6.5
2020-Jul-02 06:00N 59°30' W 046°30'3 1.0 020 / 81007.3 5.3 3.3 7.3
2020-Jul-02 03:00N 59°30' W 046°24'0 0.0 070 / 81008.4 4.8 3.0 6.8
2020-Jul-02 02:00N 59°30' W 046°24'7 6.7 080 / 61008.5 4.4 3.1 6.6
2020-Jul-02 01:00N 59°24' W 046°30'0 0.0 060 / 91008.6 4.8 3.1 7.2
2020-Jul-02 00:00N 59°24' W 046°30'6 6.1 060 / 91008.8 4.9 3.2 7.2
2020-Jul-01 23:00N 59°24' W 046°42'9 8.6 030 / 61008.4 4.8 3.1 6.5
2020-Jul-01 22:00N 59°18' W 046°54'1111.0 050 / 31008.3 4.9 3.1 6.2
2020-Jul-01 21:00N 59°12' W 047°12'9 4.3 080 / 41008.3 4.7 3.2 6.5
2020-Jul-01 19:00N 59°06' W 047°24'0 0.0 090 / 51008.6 4.9 2.9 6.3
2020-Jul-01 18:00N 59°06' W 047°24'3 3.1 080 / 81008.9 4.8 2.8 6.5
2020-Jul-01 17:00N 59°06' W 047°18'3 3.1 060 / 81009.0 4.8 3.2 6.6
2020-Jul-01 16:00N 59°06' W 047°24'0 0.0 060 / 61009.3 4.9 3.3 6.4
2020-Jul-01 15:00N 59°06' W 047°24'0 0.0 070 / 61009.7 5.1 3.1 6.2
2020-Jul-01 14:00N 59°06' W 047°24'3 3.1 100 / 51009.7 5.2 3.0 6.2
2020-Jul-01 13:00N 59°06' W 047°30'0 0.0 090 / 61009.9 5.3 2.9 6.1
2020-Jul-01 12:00N 59°06' W 047°30'6 6.2 090 / 91009.7 5.2 3.2 6.0
2020-Jul-01 11:00N 59°06' W 047°18'0 0.0 100 / 131009.7 5.0 3.4 6.3
2020-Jul-01 10:00N 59°06' W 047°18'0 0.0 060 / 101010.0 5.0 3.5 6.4
2020-Jul-01 09:00N 59°06' W 047°18'17 8.6 090 / 101010.0 4.9 3.3 6.4
2020-Jul-01 07:00N 59°18' W 046°54'9 4.3 080 / 91010.2 4.5 3.3 5.9
2020-Jul-01 05:00N 59°24' W 046°42'0 0.0 090 / 121010.5 4.5 3.0 6.7
2020-Jul-01 04:00N 59°24' W 046°42'9 8.6 100 / 131010.5 4.9 3.5 6.8
2020-Jul-01 03:00N 59°18' W 046°54'0 0.0 100 / 91010.9 5.2 3.7 6.9
2020-Jul-01 02:00N 59°18' W 046°54'0 0.0 060 / 71011.6 5.1 3.5 6.9
2020-Jul-01 01:00N 59°18' W 046°54'9 8.6 070 / 71012.0 5.1 3.5 6.9
2020-Jul-01 00:00N 59°12' W 047°06'0 0.0 090 / 91012.5 5.1 3.6 6.1
2020-Jun-30 23:00N 59°12' W 047°06'0 0.0 090 / 101012.4 5.2 3.4 6.3
2020-Jun-30 22:00N 59°12' W 047°06'11 5.5 070 / 81012.6 5.2 3.1 6.3
2020-Jun-30 20:00N 59°06' W 047°24'0 0.0 100 / 81013.4 6.1 3.9 6.3
2020-Jun-30 19:00N 59°06' W 047°24'0 0.0 110 / 41014.0 6.4 3.9 6.1
2020-Jun-30 17:00N 59°06' W 047°24'3 3.1 110 / 31015.0 6.2 3.5 6.3
2020-Jun-30 16:00N 59°06' W 047°18'0 0.0 150 / 11015.9 6.1 3.4 6.3
2020-Jun-30 15:00N 59°06' W 047°18'0 0.0 260 / 11016.8 5.5 3.1 6.3
2020-Jun-30 14:00N 59°06' W 047°18'0 0.0 190 / 31017.6 5.1 3.2 6.1
2020-Jun-30 13:00N 59°06' W 047°18'0 0.0 340 / 31018.3 4.7 2.8 6.1
2020-Jun-30 12:00N 59°06' W 047°18'0 0.0 330 / 61018.8 4.5 3.3 6.1
2020-Jun-30 11:00N 59°06' W 047°18'1212.4 300 / 61019.4 4.5 3.4 6.0
2020-Jun-30 10:00N 58°54' W 047°24'7 6.8 320 / 51020.2 5.0 3.7 6.0
2020-Jun-30 09:00N 58°48' W 047°30'1212.0 280 / 71020.7 5.4 4.0 5.9
2020-Jun-30 08:00N 58°36' W 047°30'1212.4 260 / 71021.1 5.3 4.0 6.4
2020-Jun-30 07:00N 58°24' W 047°36'1212.0 230 / 61021.9 5.4 4.3 6.4
2020-Jun-30 06:00N 58°12' W 047°36'7 6.8 220 / 31022.3 5.4 4.4 6.4
2020-Jun-30 05:00N 58°06' W 047°42'1212.4 230 / 81023.4 5.9 4.7 6.1
2020-Jun-30 04:00N 57°54' W 047°48'2412.1 220 / 91024.1 5.9 4.6 6.3
2020-Jun-30 02:00N 57°30' W 047°54'7 6.8 210 / 51025.9 6.0 4.5 6.5
2020-Jun-30 01:00N 57°24' W 048°00'1212.0 150 / 31026.1 6.1 4.6 7.1
2020-Jun-30 00:00N 57°12' W 048°00'1212.4 240 / 41026.5 6.8 4.4 7.5
2020-Jun-29 23:00N 57°00' W 048°06'1212.4 220 / 31026.9 6.7 4.2 8.0
2020-Jun-29 22:00N 56°48' W 048°12'6 6.0 250 / 31027.3 6.8 3.9 7.5
2020-Jun-29 21:00N 56°42' W 048°12'1212.4 260 / 21027.8 7.1 3.7 7.9
2020-Jun-29 20:00N 56°30' W 048°18'1212.0 260 / 21028.1 7.3 4.0 7.7
2020-Jun-29 19:00N 56°18' W 048°18'1212.5 130 / 31028.1 7.4 4.6 7.6
2020-Jun-29 18:00N 56°06' W 048°24'1212.5 030 / 11027.8 7.4 4.2 7.8
2020-Jun-29 17:00N 55°54' W 048°30'6 6.0 110 / 31027.9 7.3 4.2 7.7
2020-Jun-29 16:00N 55°48' W 048°30'1212.5 060 / 11028.1 7.1 4.3 7.4
2020-Jun-29 15:00N 55°36' W 048°36'1212.5 080 / 21028.4 7.0 4.6 7.5
2020-Jun-29 14:00N 55°24' W 048°42'6 6.0 030 / 31028.4 7.0 5.0 7.7
2020-Jun-29 13:00N 55°18' W 048°42'1212.0 050 / 51028.0 6.9 5.5 7.7
2020-Jun-29 12:00N 55°06' W 048°42'1212.5 020 / 41027.6 7.1 5.6 7.9
2020-Jun-29 11:00N 54°54' W 048°48'1212.5 010 / 51027.3 7.2 5.3 7.8
2020-Jun-29 10:00N 54°42' W 048°54'6 6.0 010 / 51026.7 7.3 5.4 7.9
2020-Jun-29 09:00N 54°36' W 048°54'1212.5 030 / 61026.3 7.4 5.8 7.8
2020-Jun-29 08:00N 54°24' W 049°00'1212.0 300 / 61025.6 7.0 5.3 7.9
2020-Jun-29 07:00N 54°12' W 049°00'7 7.0 330 / 71025.2 6.8 5.1 7.7
2020-Jun-29 06:00N 54°06' W 049°06'1212.0 250 / 41024.8 6.6 4.8 7.8
2020-Jun-29 05:00N 53°54' W 049°06'1312.5 220 / 11024.5 7.1 3.4 7.7
2020-Jun-29 04:00N 53°42' W 049°12'1212.0 030 / 41024.0 6.9 5.1 7.7
2020-Jun-29 03:00N 53°30' W 049°12'7 7.0 070 / 61023.7 7.3 5.2 8.3
2020-Jun-29 02:00N 53°24' W 049°18'1312.5 040 / 61023.2 7.0 5.7 8.3
2020-Jun-29 01:00N 53°12' W 049°24'1212.0 050 / 21022.9 6.9 5.3 8.6
2020-Jun-29 00:00N 53°00' W 049°24'7 7.0 040 / 31022.5 7.7 5.4 8.3
2020-Jun-28 23:00N 52°54' W 049°30'1212.0 040 / 51021.8 8.0 4.9 8.2
2020-Jun-28 22:00N 52°42' W 049°30'1312.5 070 / 91021.3 7.7 6.2 8.3
2020-Jun-28 21:00N 52°30' W 049°36'6 6.0 040 / 51020.6 7.8 6.3 7.9
2020-Jun-28 20:00N 52°24' W 049°36'6 6.0 010 / 61020.6 7.6 6.3 7.8
2020-Jun-28 19:00N 52°18' W 049°36'0 0.0 010 / 61020.3 7.5 6.4 7.4
2020-Jun-28 18:00N 52°18' W 049°36'0 0.0 350 / 61019.8 7.5 6.4 7.1
2020-Jun-28 17:00N 52°18' W 049°36'7 7.0 340 / 41019.4 7.4 6.3 6.9
2020-Jun-28 16:00N 52°12' W 049°42'1212.0 020 / 61018.9 7.0 6.0 7.3
2020-Jun-28 15:00N 52°00' W 049°42'1312.6 350 / 51018.5 6.8 6.0 7.1
2020-Jun-28 14:00N 51°48' W 049°48'6 6.0 010 / 101017.5 6.7 5.9 7.1
2020-Jun-28 13:00N 51°42' W 049°48'3110.3 1017.3 6.7 6.0 7.0
2020-Jun-28 10:00N 51°12' W 050°00'1212.0 010 / 81015.2 6.1 5.4 6.6
2020-Jun-28 09:00N 51°00' W 050°00'1312.6 010 / 111014.5 6.3 5.6 8.0
2020-Jun-28 08:00N 50°48' W 050°06'6 6.0 020 / 131014.3 6.1 5.4 6.9
2020-Jun-28 07:00N 50°42' W 050°06'1312.6 010 / 101014.1 6.0 5.3 6.7
2020-Jun-28 06:00N 50°30' W 050°12'1212.0 010 / 121013.2 6.3 5.6 7.2
2020-Jun-28 05:00N 50°18' W 050°12'7 7.1 010 / 101013.0 6.7 6.0 7.4
2020-Jun-28 04:00N 50°12' W 050°18'1212.0 350 / 101012.7 6.6 5.9 7.1
2020-Jun-28 03:00N 50°00' W 050°18'7 7.1 340 / 91013.2 6.2 5.5 6.5
2020-Jun-28 02:00N 49°54' W 050°24'1212.0 320 / 101012.8 5.9 5.1 6.7
2020-Jun-28 01:00N 49°42' W 050°24'1312.6 340 / 111012.7 6.0 5.3 7.3
2020-Jun-28 00:00N 49°30' W 050°30'6 6.0 330 / 81012.5 6.1 5.4 7.4
2020-Jun-27 23:00N 49°24' W 050°30'1312.6 320 / 91011.6 6.5 5.7 7.6
2020-Jun-27 22:00N 49°12' W 050°36'1212.0 340 / 41011.4 7.3 6.2 7.9
2020-Jun-27 21:00N 49°00' W 050°36'137 9.8 020 / 71010.9 7.9 6.5 8.6
2020-Jun-27 07:00N 46°48' W 051°30'1010.2 220 / 151011.5 10.710.0 9.5
2020-Jun-27 06:00N 46°42' W 051°42'8 8.2 210 / 101011.3 10.710.0 9.7
2020-Jun-27 05:00N 46°42' W 051°54'8 8.2 240 / 101011.6 10.910.2 9.7
2020-Jun-27 04:00N 46°42' W 052°06'7 7.3 220 / 131011.9 11.310.6 9.0
2020-Jun-27 03:00N 46°36' W 052°12'8 8.2 210 / 101012.5 11.310.6 9.6
2020-Jun-27 02:00N 46°36' W 052°24'1010.2 210 / 111013.2 11.410.7 9.6
2020-Jun-27 01:00N 46°30' W 052°36'8 8.3 180 / 141013.4 12.011.3 9.3
2020-Jun-27 00:00N 46°30' W 052°48'1010.2 180 / 141013.7 12.411.7 9.5
2020-Jun-26 23:00N 46°24' W 053°00'8 8.3 180 / 151013.9 11.911.110.1
2020-Jun-26 22:00N 46°24' W 053°12'1413.8 200 / 61013.8 13.012.110.7
2020-Jun-26 21:00N 46°18' W 053°30'8 8.3 220 / 111014.3 13.712.911.6
2020-Jun-26 20:00N 46°18' W 053°42'1212.4 200 / 161015.0 11.911.011.7
2020-Jun-26 19:00N 46°18' W 054°00'1010.2 230 / 41014.4 11.810.910.8
2020-Jun-26 18:00N 46°12' W 054°12'1212.5 210 / 101015.4 11.710.711.3
2020-Jun-26 17:00N 46°12' W 054°30'1413.8 250 / 121015.4 11.911.011.2
2020-Jun-26 16:00N 46°06' W 054°48'8 8.3 250 / 141015.6 11.710.811.3
2020-Jun-26 15:00N 46°06' W 055°00'1212.5 230 / 171015.8 11.410.611.1
2020-Jun-26 14:00N 46°06' W 055°18'1010.3 230 / 161015.7 11.610.811.0
2020-Jun-26 13:00N 46°00' W 055°30'8 8.3 220 / 161016.0 11.610.811.1
2020-Jun-26 12:00N 46°00' W 055°42'8 8.3 240 / 161015.7 11.710.911.3
2020-Jun-26 11:00N 46°00' W 055°54'1413.9 230 / 161015.5 12.011.311.2
2020-Jun-26 10:00N 45°54' W 056°12'1312.5 240 / 151015.5 12.311.611.3
2020-Jun-26 09:00N 45°54' W 056°30'1010.3 230 / 181015.1 12.511.811.4
2020-Jun-26 08:00N 45°48' W 056°42'3010.0 220 / 161014.9 12.712.011.6
2020-Jun-26 05:00N 45°42' W 057°24'1413.9 220 / 201014.3 13.312.611.6
2020-Jun-26 04:00N 45°36' W 057°42'2210.9 210 / 181014.5 13.813.111.9
2020-Jun-26 02:00N 45°30' W 058°12'1312.6 180 / 181014.5 14.613.911.6
2020-Jun-26 01:00N 45°30' W 058°30'1010.3 180 / 191014.8 14.814.111.7
2020-Jun-26 00:00N 45°24' W 058°42'8 8.4 180 / 171014.6 14.313.612.2
2020-Jun-25 23:00N 45°24' W 058°54'1010.3 190 / 161014.8 14.714.012.0
2020-Jun-25 22:00N 45°18' W 059°06'8 8.4 190 / 181014.7 14.814.112.4
2020-Jun-25 21:00N 45°18' W 059°18'1414.0 190 / 181014.9 15.114.411.6
2020-Jun-25 20:00N 45°12' W 059°36'8 8.5 190 / 191015.2 15.114.312.2
2020-Jun-25 19:00N 45°12' W 059°48'1414.0 190 / 181015.1 15.414.712.5
2020-Jun-25 18:00N 45°06' W 060°06'1010.4 190 / 161015.1 15.414.612.7
2020-Jun-25 17:00N 45°00' W 060°18'8 8.5 180 / 181014.7 15.314.612.4
2020-Jun-25 16:00N 45°00' W 060°30'1414.1 190 / 141015.0 14.914.112.4
2020-Jun-25 15:00N 44°54' W 060°48'9 8.5 190 / 151014.8 15.014.313.1
2020-Jun-25 14:00N 44°54' W 061°00'2211.0 220 / 141014.1 15.414.612.9
2020-Jun-25 12:00N 44°48' W 061°30'1010.4 200 / 141014.3 15.214.511.9
2020-Jun-25 11:00N 44°42' W 061°42'1010.4 230 / 131013.4 15.514.613.0
2020-Jun-25 10:00N 44°36' W 061°54'9 8.5 200 / 151013.5 15.014.313.5
2020-Jun-25 09:00N 44°36' W 062°06'1010.4 190 / 161013.3 15.214.512.8
2020-Jun-25 08:00N 44°30' W 062°18'1414.2 200 / 151012.7 15.314.614.3
2020-Jun-25 07:00N 44°24' W 062°36'1010.5 180 / 141012.2 15.815.113.5
2020-Jun-25 06:00N 44°18' W 062°48'1010.5 180 / 121012.0 15.614.912.9
2020-Jun-25 05:00N 44°12' W 063°00'1010.5 180 / 171011.9 15.715.012.9
2020-Jun-25 04:00N 44°06' W 063°12'1414.3 180 / 151012.1 15.715.013.2
2020-Jun-25 03:00N 44°00' W 063°30'1110.5 180 / 161012.1 15.514.813.3
2020-Jun-25 02:00N 43°54' W 063°42'9 8.6 180 / 171012.1 15.514.814.1
2020-Jun-25 01:00N 43°54' W 063°54'1110.5 180 / 161012.0 15.815.114.4
2020-Jun-25 00:00N 43°48' W 064°06'1110.5 180 / 171011.4 16.215.513.9
2020-Jun-24 23:00N 43°42' W 064°18'1110.6 170 / 161011.2 15.915.214.0
2020-Jun-24 22:00N 43°36' W 064°30'1414.4 170 / 151011.1 15.815.113.5
2020-Jun-24 21:00N 43°30' W 064°48'1110.6 160 / 151010.9 16.215.513.4
2020-Jun-24 20:00N 43°24' W 065°00'1110.6 160 / 141011.1 15.915.212.8
2020-Jun-24 19:00N 43°18' W 065°12'1110.6 160 / 141011.0 15.614.913.3
2020-Jun-24 18:00N 43°12' W 065°24'1110.6 150 / 181010.6 14.113.4 9.0
2020-Jun-24 17:00N 43°06' W 065°36'1110.6 150 / 171010.2 14.213.410.4
2020-Jun-24 16:00N 43°00' W 065°48'9 8.8 160 / 151010.2 15.214.510.0
2020-Jun-24 15:00N 43°00' W 066°00'1110.6 150 / 181010.2 12.611.9 9.3
2020-Jun-24 14:00N 42°54' W 066°12'1110.6 150 / 151010.4 11.811.0 9.8
2020-Jun-24 13:00N 42°48' W 066°24'1110.7 150 / 161010.4 13.512.713.0
2020-Jun-24 12:00N 42°42' W 066°36'1110.7 170 / 131010.4 14.814.113.8
2020-Jun-24 11:00N 42°36' W 066°48'1514.9 160 / 131010.1 14.213.514.1
2020-Jun-24 10:00N 42°24' W 067°00'1110.7 170 / 121010.4 14.213.514.0
2020-Jun-24 09:00N 42°18' W 067°12'1110.7 170 / 131009.8 14.213.514.0
2020-Jun-24 08:00N 42°12' W 067°24'1514.6 170 / 141009.5 13.913.215.8
2020-Jun-24 07:00N 42°06' W 067°42'9 8.9 190 / 131009.7 14.313.616.2
2020-Jun-24 06:00N 42°06' W 067°54'1110.7 190 / 151009.8 14.613.916.1
2020-Jun-24 05:00N 42°00' W 068°06'1313.4 200 / 151010.0 14.213.516.0
2020-Jun-24 04:00N 42°00' W 068°24'1110.8 180 / 151009.9 14.113.413.9
2020-Jun-24 03:00N 41°54' W 068°36'1110.8 180 / 131010.2 15.414.715.8
2020-Jun-24 02:00N 41°48' W 068°48'1110.8 190 / 131010.2 15.915.217.4
2020-Jun-24 01:00N 41°42' W 069°00'9 9.0 190 / 121010.2 16.215.517.1
2020-Jun-24 00:00N 41°42' W 069°12'1110.8 190 / 131009.8 16.816.118.6
2020-Jun-23 23:00N 41°36' W 069°24'1110.8 190 / 111009.9 16.015.318.6
2020-Jun-23 22:00N 41°30' W 069°36'7 7.5 200 / 101009.8 15.414.617.4
2020-Jun-23 21:00N 41°24' W 069°42'1413.5 200 / 131009.8 15.714.911.8
2020-Jun-23 20:00N 41°24' W 070°00'9 9.0 220 / 131010.1 18.918.215.6
2020-Jun-23 19:00N 41°24' W 070°12'1514.8 220 / 151010.7 18.217.420.0
2020-Jun-23 18:00N 41°30' W 070°30'9 9.0 190 / 171010.3 20.118.319.4
2020-Jun-23 17:00N 41°30' W 070°42'   230 / 71011.1 22.219.219.8

Dump ship's entire track history